sensor_id;sensor_type;location;lat;lon;timestamp;temperature;humidity
33715;DHT22;20043;50.998;4.754;2023-06-14T00:01:41;21.10;91.60
33715;DHT22;20043;50.998;4.754;2023-06-14T00:04:06;21.10;92.30
33715;DHT22;20043;50.998;4.754;2023-06-14T00:06:34;20.90;91.60
33715;DHT22;20043;50.998;4.754;2023-06-14T00:08:59;20.70;92.10
33715;DHT22;20043;50.998;4.754;2023-06-14T00:11:25;20.70;92.60
33715;DHT22;20043;50.998;4.754;2023-06-14T00:13:52;20.80;92.50
33715;DHT22;20043;50.998;4.754;2023-06-14T00:16:18;20.70;92.70
33715;DHT22;20043;50.998;4.754;2023-06-14T00:18:45;20.50;92.60
33715;DHT22;20043;50.998;4.754;2023-06-14T00:21:11;20.50;93.20
33715;DHT22;20043;50.998;4.754;2023-06-14T00:23:37;20.30;92.50
33715;DHT22;20043;50.998;4.754;2023-06-14T00:26:03;20.30;92.40
33715;DHT22;20043;50.998;4.754;2023-06-14T00:28:29;20.30;92.40
33715;DHT22;20043;50.998;4.754;2023-06-14T00:30:54;20.30;92.30
33715;DHT22;20043;50.998;4.754;2023-06-14T00:33:20;20.30;92.20
33715;DHT22;20043;50.998;4.754;2023-06-14T00:35:46;20.40;92.40
33715;DHT22;20043;50.998;4.754;2023-06-14T00:38:12;20.30;93.10
33715;DHT22;20043;50.998;4.754;2023-06-14T00:40:38;20.20;92.20
33715;DHT22;20043;50.998;4.754;2023-06-14T00:43:03;20.20;91.70
33715;DHT22;20043;50.998;4.754;2023-06-14T00:45:29;20.20;91.80
33715;DHT22;20043;50.998;4.754;2023-06-14T00:47:56;20.20;92.60
33715;DHT22;20043;50.998;4.754;2023-06-14T00:50:23;20.40;93.00
33715;DHT22;20043;50.998;4.754;2023-06-14T00:52:49;20.40;93.50
33715;DHT22;20043;50.998;4.754;2023-06-14T00:55:15;20.30;93.80
33715;DHT22;20043;50.998;4.754;2023-06-14T00:57:41;20.30;93.70
33715;DHT22;20043;50.998;4.754;2023-06-14T01:00:07;20.40;93.50
33715;DHT22;20043;50.998;4.754;2023-06-14T01:02:38;20.30;93.60
33715;DHT22;20043;50.998;4.754;2023-06-14T01:05:05;19.90;93.70
33715;DHT22;20043;50.998;4.754;2023-06-14T01:07:41;19.90;92.80
33715;DHT22;20043;50.998;4.754;2023-06-14T01:10:25;19.90;94.20
33715;DHT22;20043;50.998;4.754;2023-06-14T01:15:25;19.80;94.70
33715;DHT22;20043;50.998;4.754;2023-06-14T01:17:52;19.80;95.50
33715;DHT22;20043;50.998;4.754;2023-06-14T01:20:22;19.90;95.40
33715;DHT22;20043;50.998;4.754;2023-06-14T01:22:51;19.80;94.50
33715;DHT22;20043;50.998;4.754;2023-06-14T01:25:21;19.60;94.50
33715;DHT22;20043;50.998;4.754;2023-06-14T01:27:56;19.60;94.90
33715;DHT22;20043;50.998;4.754;2023-06-14T01:30:23;19.50;95.60
33715;DHT22;20043;50.998;4.754;2023-06-14T01:32:51;19.50;95.00
33715;DHT22;20043;50.998;4.754;2023-06-14T01:35:17;19.50;95.70
33715;DHT22;20043;50.998;4.754;2023-06-14T01:37:43;19.60;94.90
33715;DHT22;20043;50.998;4.754;2023-06-14T01:40:10;19.60;96.00
33715;DHT22;20043;50.998;4.754;2023-06-14T01:42:38;19.50;95.30
33715;DHT22;20043;50.998;4.754;2023-06-14T01:45:07;19.40;95.60
33715;DHT22;20043;50.998;4.754;2023-06-14T01:47:34;19.30;95.80
33715;DHT22;20043;50.998;4.754;2023-06-14T01:50:02;19.20;96.80
33715;DHT22;20043;50.998;4.754;2023-06-14T01:52:28;19.50;96.90
33715;DHT22;20043;50.998;4.754;2023-06-14T01:54:53;19.60;96.80
33715;DHT22;20043;50.998;4.754;2023-06-14T01:57:19;19.70;96.50
33715;DHT22;20043;50.998;4.754;2023-06-14T01:59:45;19.70;96.40
33715;DHT22;20043;50.998;4.754;2023-06-14T02:02:14;19.40;96.20
33715;DHT22;20043;50.998;4.754;2023-06-14T02:04:40;19.10;96.80
33715;DHT22;20043;50.998;4.754;2023-06-14T02:07:06;19.00;97.40
33715;DHT22;20043;50.998;4.754;2023-06-14T02:09:32;19.10;98.00
33715;DHT22;20043;50.998;4.754;2023-06-14T02:11:57;19.20;97.50
33715;DHT22;20043;50.998;4.754;2023-06-14T02:14:23;19.30;97.60
33715;DHT22;20043;50.998;4.754;2023-06-14T02:16:49;19.10;97.60
33715;DHT22;20043;50.998;4.754;2023-06-14T02:19:19;19.10;98.10
33715;DHT22;20043;50.998;4.754;2023-06-14T02:21:45;19.10;97.90
33715;DHT22;20043;50.998;4.754;2023-06-14T02:24:11;19.20;98.20
33715;DHT22;20043;50.998;4.754;2023-06-14T02:26:36;19.40;97.80
33715;DHT22;20043;50.998;4.754;2023-06-14T02:29:07;19.40;97.10
33715;DHT22;20043;50.998;4.754;2023-06-14T02:31:35;19.30;97.70
33715;DHT22;20043;50.998;4.754;2023-06-14T02:34:01;19.20;97.80
33715;DHT22;20043;50.998;4.754;2023-06-14T02:36:26;19.30;97.60
33715;DHT22;20043;50.998;4.754;2023-06-14T02:38:52;19.30;97.90
33715;DHT22;20043;50.998;4.754;2023-06-14T02:41:19;19.30;98.60
33715;DHT22;20043;50.998;4.754;2023-06-14T02:43:45;19.40;98.30
33715;DHT22;20043;50.998;4.754;2023-06-14T02:46:10;19.30;98.50
33715;DHT22;20043;50.998;4.754;2023-06-14T02:48:36;19.30;98.40
33715;DHT22;20043;50.998;4.754;2023-06-14T02:51:02;19.30;98.80
33715;DHT22;20043;50.998;4.754;2023-06-14T02:53:27;19.20;99.20
33715;DHT22;20043;50.998;4.754;2023-06-14T02:55:53;19.00;99.60
33715;DHT22;20043;50.998;4.754;2023-06-14T02:58:23;18.90;98.80
33715;DHT22;20043;50.998;4.754;2023-06-14T03:00:50;18.90;99.80
33715;DHT22;20043;50.998;4.754;2023-06-14T03:03:18;18.80;99.50
33715;DHT22;20043;50.998;4.754;2023-06-14T03:05:45;18.90;99.80
33715;DHT22;20043;50.998;4.754;2023-06-14T03:08:13;18.90;99.90
33715;DHT22;20043;50.998;4.754;2023-06-14T03:10:48;18.80;99.90
33715;DHT22;20043;50.998;4.754;2023-06-14T03:13:14;18.80;99.90
33715;DHT22;20043;50.998;4.754;2023-06-14T03:15:41;18.80;99.90
33715;DHT22;20043;50.998;4.754;2023-06-14T03:18:08;18.80;99.90
33715;DHT22;20043;50.998;4.754;2023-06-14T03:20:35;18.90;99.90
33715;DHT22;20043;50.998;4.754;2023-06-14T03:23:01;18.90;99.90
33715;DHT22;20043;50.998;4.754;2023-06-14T03:25:28;18.90;99.90
33715;DHT22;20043;50.998;4.754;2023-06-14T03:27:55;18.80;99.90
33715;DHT22;20043;50.998;4.754;2023-06-14T03:30:21;18.40;99.90
33715;DHT22;20043;50.998;4.754;2023-06-14T03:32:47;18.40;99.90
33715;DHT22;20043;50.998;4.754;2023-06-14T03:35:12;18.40;99.90
33715;DHT22;20043;50.998;4.754;2023-06-14T03:37:43;18.50;99.90
33715;DHT22;20043;50.998;4.754;2023-06-14T03:40:09;18.50;99.90
33715;DHT22;20043;50.998;4.754;2023-06-14T03:42:35;18.30;99.90
33715;DHT22;20043;50.998;4.754;2023-06-14T03:45:01;18.30;99.90
33715;DHT22;20043;50.998;4.754;2023-06-14T03:47:26;18.20;99.90
33715;DHT22;20043;50.998;4.754;2023-06-14T03:49:52;18.20;99.90
33715;DHT22;20043;50.998;4.754;2023-06-14T03:52:18;18.20;99.90
33715;DHT22;20043;50.998;4.754;2023-06-14T03:54:50;18.20;99.90
33715;DHT22;20043;50.998;4.754;2023-06-14T03:57:16;18.20;99.90
33715;DHT22;20043;50.998;4.754;2023-06-14T03:59:42;18.10;99.90
33715;DHT22;20043;50.998;4.754;2023-06-14T04:02:08;18.10;99.90
33715;DHT22;20043;50.998;4.754;2023-06-14T04:04:35;18.20;99.90
33715;DHT22;20043;50.998;4.754;2023-06-14T04:07:01;18.10;99.90
33715;DHT22;20043;50.998;4.754;2023-06-14T04:09:29;17.90;99.90
33715;DHT22;20043;50.998;4.754;2023-06-14T04:11:55;17.90;99.90
33715;DHT22;20043;50.998;4.754;2023-06-14T04:14:21;17.90;99.90
33715;DHT22;20043;50.998;4.754;2023-06-14T04:16:48;17.80;99.90
33715;DHT22;20043;50.998;4.754;2023-06-14T04:19:14;18.10;99.90
33715;DHT22;20043;50.998;4.754;2023-06-14T04:21:40;18.30;99.90
33715;DHT22;20043;50.998;4.754;2023-06-14T04:24:06;18.50;99.90
33715;DHT22;20043;50.998;4.754;2023-06-14T04:26:32;18.70;99.90
33715;DHT22;20043;50.998;4.754;2023-06-14T04:29:01;18.90;99.90
33715;DHT22;20043;50.998;4.754;2023-06-14T04:31:28;19.10;99.90
33715;DHT22;20043;50.998;4.754;2023-06-14T04:33:55;19.40;99.90
33715;DHT22;20043;50.998;4.754;2023-06-14T04:36:21;19.60;99.90
33715;DHT22;20043;50.998;4.754;2023-06-14T04:38:47;19.90;99.90
33715;DHT22;20043;50.998;4.754;2023-06-14T04:41:14;20.30;99.90
33715;DHT22;20043;50.998;4.754;2023-06-14T04:43:41;20.60;99.90
33715;DHT22;20043;50.998;4.754;2023-06-14T04:46:08;21.00;99.90
33715;DHT22;20043;50.998;4.754;2023-06-14T04:48:39;21.30;99.90
33715;DHT22;20043;50.998;4.754;2023-06-14T04:51:07;21.50;99.90
33715;DHT22;20043;50.998;4.754;2023-06-14T04:53:32;21.80;99.90
33715;DHT22;20043;50.998;4.754;2023-06-14T04:55:58;22.10;99.50
33715;DHT22;20043;50.998;4.754;2023-06-14T04:58:23;22.50;98.80
33715;DHT22;20043;50.998;4.754;2023-06-14T05:00:49;22.90;98.30
33715;DHT22;20043;50.998;4.754;2023-06-14T05:03:15;23.20;97.50
33715;DHT22;20043;50.998;4.754;2023-06-14T05:05:41;23.40;96.40
33715;DHT22;20043;50.998;4.754;2023-06-14T05:08:07;23.70;95.80
33715;DHT22;20043;50.998;4.754;2023-06-14T05:10:33;24.00;94.90
33715;DHT22;20043;50.998;4.754;2023-06-14T05:13:00;24.10;92.60
33715;DHT22;20043;50.998;4.754;2023-06-14T05:15:26;24.60;94.30
33715;DHT22;20043;50.998;4.754;2023-06-14T05:17:53;25.00;94.30
33715;DHT22;20043;50.998;4.754;2023-06-14T05:20:21;25.40;93.80
33715;DHT22;20043;50.998;4.754;2023-06-14T05:22:48;25.60;92.90
33715;DHT22;20043;50.998;4.754;2023-06-14T05:25:17;26.00;91.30
33715;DHT22;20043;50.998;4.754;2023-06-14T05:27:43;26.40;91.80
33715;DHT22;20043;50.998;4.754;2023-06-14T05:30:09;26.50;90.60
33715;DHT22;20043;50.998;4.754;2023-06-14T05:32:35;26.70;90.00
33715;DHT22;20043;50.998;4.754;2023-06-14T05:35:00;26.80;89.70
33715;DHT22;20043;50.998;4.754;2023-06-14T05:37:26;26.80;88.60
33715;DHT22;20043;50.998;4.754;2023-06-14T05:39:51;26.80;86.70
33715;DHT22;20043;50.998;4.754;2023-06-14T05:42:17;27.10;88.00
33715;DHT22;20043;50.998;4.754;2023-06-14T05:44:43;27.20;86.50
33715;DHT22;20043;50.998;4.754;2023-06-14T05:47:08;27.10;87.60
33715;DHT22;20043;50.998;4.754;2023-06-14T05:49:34;27.10;85.40
33715;DHT22;20043;50.998;4.754;2023-06-14T05:51:59;26.70;85.30
33715;DHT22;20043;50.998;4.754;2023-06-14T05:54:25;25.90;87.30
33715;DHT22;20043;50.998;4.754;2023-06-14T05:56:51;25.90;87.50
33715;DHT22;20043;50.998;4.754;2023-06-14T05:59:16;26.00;89.30
33715;DHT22;20043;50.998;4.754;2023-06-14T06:01:42;25.70;87.50
33715;DHT22;20043;50.998;4.754;2023-06-14T06:04:09;25.40;89.10
33715;DHT22;20043;50.998;4.754;2023-06-14T06:06:34;25.00;87.60
33715;DHT22;20043;50.998;4.754;2023-06-14T06:09:01;25.30;89.70
33715;DHT22;20043;50.998;4.754;2023-06-14T06:11:27;25.50;89.90
33715;DHT22;20043;50.998;4.754;2023-06-14T06:13:53;24.80;90.30
33715;DHT22;20043;50.998;4.754;2023-06-14T06:16:18;24.50;90.30
33715;DHT22;20043;50.998;4.754;2023-06-14T06:18:44;24.00;91.40
33715;DHT22;20043;50.998;4.754;2023-06-14T06:21:09;24.10;92.20
33715;DHT22;20043;50.998;4.754;2023-06-14T06:23:35;24.20;91.90
33715;DHT22;20043;50.998;4.754;2023-06-14T06:26:01;24.10;90.80
33715;DHT22;20043;50.998;4.754;2023-06-14T06:28:26;23.90;91.00
33715;DHT22;20043;50.998;4.754;2023-06-14T06:30:52;24.00;90.70
33715;DHT22;20043;50.998;4.754;2023-06-14T06:33:18;24.10;91.10
33715;DHT22;20043;50.998;4.754;2023-06-14T06:35:44;24.10;91.80
33715;DHT22;20043;50.998;4.754;2023-06-14T06:38:10;24.20;92.10
33715;DHT22;20043;50.998;4.754;2023-06-14T06:40:36;24.30;91.40
33715;DHT22;20043;50.998;4.754;2023-06-14T06:43:02;24.40;91.30
33715;DHT22;20043;50.998;4.754;2023-06-14T06:45:28;24.40;90.90
33715;DHT22;20043;50.998;4.754;2023-06-14T06:47:54;24.50;91.00
33715;DHT22;20043;50.998;4.754;2023-06-14T06:50:21;24.60;90.80
33715;DHT22;20043;50.998;4.754;2023-06-14T06:52:48;24.70;91.10
33715;DHT22;20043;50.998;4.754;2023-06-14T06:55:14;24.60;90.80
33715;DHT22;20043;50.998;4.754;2023-06-14T06:57:40;24.80;91.10
33715;DHT22;20043;50.998;4.754;2023-06-14T07:00:06;24.50;91.00
33715;DHT22;20043;50.998;4.754;2023-06-14T07:02:42;24.20;91.30
33715;DHT22;20043;50.998;4.754;2023-06-14T07:05:08;23.90;91.30
33715;DHT22;20043;50.998;4.754;2023-06-14T07:07:34;23.70;91.50
33715;DHT22;20043;50.998;4.754;2023-06-14T07:09:59;23.80;92.40
33715;DHT22;20043;50.998;4.754;2023-06-14T07:12:30;23.90;91.60
33715;DHT22;20043;50.998;4.754;2023-06-14T07:14:57;23.80;92.20
33715;DHT22;20043;50.998;4.754;2023-06-14T07:17:22;23.80;93.40
33715;DHT22;20043;50.998;4.754;2023-06-14T07:19:48;24.30;92.30
33715;DHT22;20043;50.998;4.754;2023-06-14T07:22:14;24.40;91.80
33715;DHT22;20043;50.998;4.754;2023-06-14T07:24:39;24.30;91.40
33715;DHT22;20043;50.998;4.754;2023-06-14T07:27:06;24.40;92.70
33715;DHT22;20043;50.998;4.754;2023-06-14T07:29:31;24.50;91.80
33715;DHT22;20043;50.998;4.754;2023-06-14T07:31:57;24.50;91.60
33715;DHT22;20043;50.998;4.754;2023-06-14T07:34:22;24.30;90.80
33715;DHT22;20043;50.998;4.754;2023-06-14T07:36:48;24.10;92.10
33715;DHT22;20043;50.998;4.754;2023-06-14T07:39:14;24.40;92.50
33715;DHT22;20043;50.998;4.754;2023-06-14T07:41:39;24.60;91.30
33715;DHT22;20043;50.998;4.754;2023-06-14T07:44:05;24.30;91.80
33715;DHT22;20043;50.998;4.754;2023-06-14T07:46:31;24.40;92.00
33715;DHT22;20043;50.998;4.754;2023-06-14T07:48:56;24.40;92.30
33715;DHT22;20043;50.998;4.754;2023-06-14T07:51:22;24.70;92.90
33715;DHT22;20043;50.998;4.754;2023-06-14T07:53:48;25.00;94.10
33715;DHT22;20043;50.998;4.754;2023-06-14T07:56:14;25.10;91.50
33715;DHT22;20043;50.998;4.754;2023-06-14T07:58:40;25.20;91.90
33715;DHT22;20043;50.998;4.754;2023-06-14T08:01:06;25.50;92.30
33715;DHT22;20043;50.998;4.754;2023-06-14T08:03:33;25.60;91.50
33715;DHT22;20043;50.998;4.754;2023-06-14T08:06:00;25.50;90.60
33715;DHT22;20043;50.998;4.754;2023-06-14T08:08:26;25.40;91.50
33715;DHT22;20043;50.998;4.754;2023-06-14T08:10:52;25.60;91.50
33715;DHT22;20043;50.998;4.754;2023-06-14T08:13:17;25.80;91.10
33715;DHT22;20043;50.998;4.754;2023-06-14T08:15:43;26.00;90.90
33715;DHT22;20043;50.998;4.754;2023-06-14T08:18:09;26.30;90.20
33715;DHT22;20043;50.998;4.754;2023-06-14T08:20:35;26.30;88.80
33715;DHT22;20043;50.998;4.754;2023-06-14T08:23:02;26.20;89.10
33715;DHT22;20043;50.998;4.754;2023-06-14T08:25:27;26.30;88.90
33715;DHT22;20043;50.998;4.754;2023-06-14T08:27:53;26.40;87.50
33715;DHT22;20043;50.998;4.754;2023-06-14T08:30:19;25.90;87.70
33715;DHT22;20043;50.998;4.754;2023-06-14T08:32:44;25.40;87.60
33715;DHT22;20043;50.998;4.754;2023-06-14T08:35:10;25.60;89.50
33715;DHT22;20043;50.998;4.754;2023-06-14T08:37:39;25.60;89.60
33715;DHT22;20043;50.998;4.754;2023-06-14T08:40:22;25.80;88.00
33715;DHT22;20043;50.998;4.754;2023-06-14T08:42:53;25.70;89.30
33715;DHT22;20043;50.998;4.754;2023-06-14T08:45:20;25.70;90.30
33715;DHT22;20043;50.998;4.754;2023-06-14T08:47:47;25.80;89.80
33715;DHT22;20043;50.998;4.754;2023-06-14T08:50:20;25.40;90.00
33715;DHT22;20043;50.998;4.754;2023-06-14T08:52:51;25.40;90.10
33715;DHT22;20043;50.998;4.754;2023-06-14T08:55:19;25.50;90.20
33715;DHT22;20043;50.998;4.754;2023-06-14T08:57:46;25.90;88.00
33715;DHT22;20043;50.998;4.754;2023-06-14T09:00:13;26.00;86.80
33715;DHT22;20043;50.998;4.754;2023-06-14T09:02:39;26.20;87.40
33715;DHT22;20043;50.998;4.754;2023-06-14T09:05:12;26.10;86.20
33715;DHT22;20043;50.998;4.754;2023-06-14T09:07:40;26.00;88.00
33715;DHT22;20043;50.998;4.754;2023-06-14T09:10:12;26.10;88.20
33715;DHT22;20043;50.998;4.754;2023-06-14T09:12:38;26.40;87.80
33715;DHT22;20043;50.998;4.754;2023-06-14T09:15:08;26.80;87.20
33715;DHT22;20043;50.998;4.754;2023-06-14T09:17:38;26.90;84.60
33715;DHT22;20043;50.998;4.754;2023-06-14T09:20:05;26.80;83.00
33715;DHT22;20043;50.998;4.754;2023-06-14T09:22:33;26.70;84.50
33715;DHT22;20043;50.998;4.754;2023-06-14T09:24:59;26.60;83.40
33715;DHT22;20043;50.998;4.754;2023-06-14T09:27:28;26.80;83.80
33715;DHT22;20043;50.998;4.754;2023-06-14T09:29:54;26.80;85.30
33715;DHT22;20043;50.998;4.754;2023-06-14T09:32:21;26.90;82.80
33715;DHT22;20043;50.998;4.754;2023-06-14T09:34:47;26.90;82.30
33715;DHT22;20043;50.998;4.754;2023-06-14T09:37:13;27.10;81.80
33715;DHT22;20043;50.998;4.754;2023-06-14T09:39:51;26.60;80.10
33715;DHT22;20043;50.998;4.754;2023-06-14T09:42:17;26.60;81.20
33715;DHT22;20043;50.998;4.754;2023-06-14T09:44:45;26.80;79.80
33715;DHT22;20043;50.998;4.754;2023-06-14T09:47:13;27.10;79.40
33715;DHT22;20043;50.998;4.754;2023-06-14T09:49:39;27.20;81.40
33715;DHT22;20043;50.998;4.754;2023-06-14T09:52:06;27.20;80.90
33715;DHT22;20043;50.998;4.754;2023-06-14T09:54:41;27.10;81.50
33715;DHT22;20043;50.998;4.754;2023-06-14T09:57:12;27.00;78.70
33715;DHT22;20043;50.998;4.754;2023-06-14T09:59:42;27.10;79.80
33715;DHT22;20043;50.998;4.754;2023-06-14T10:02:31;27.30;79.70
33715;DHT22;20043;50.998;4.754;2023-06-14T10:05:06;27.20;77.80
33715;DHT22;20043;50.998;4.754;2023-06-14T10:07:42;27.20;79.30
33715;DHT22;20043;50.998;4.754;2023-06-14T10:10:09;27.30;76.60
33715;DHT22;20043;50.998;4.754;2023-06-14T10:12:36;27.20;78.90
33715;DHT22;20043;50.998;4.754;2023-06-14T10:15:02;27.10;79.20
33715;DHT22;20043;50.998;4.754;2023-06-14T10:17:43;27.20;78.50
33715;DHT22;20043;50.998;4.754;2023-06-14T10:23:06;27.40;78.10
33715;DHT22;20043;50.998;4.754;2023-06-14T10:25:34;27.90;76.90
33715;DHT22;20043;50.998;4.754;2023-06-14T10:28:20;28.10;77.80
33715;DHT22;20043;50.998;4.754;2023-06-14T10:31:08;28.00;72.80
33715;DHT22;20043;50.998;4.754;2023-06-14T10:33:35;28.00;74.60
33715;DHT22;20043;50.998;4.754;2023-06-14T10:39:16;27.60;72.00
33715;DHT22;20043;50.998;4.754;2023-06-14T10:41:51;27.60;75.20
33715;DHT22;20043;50.998;4.754;2023-06-14T10:46:47;28.00;72.80
33715;DHT22;20043;50.998;4.754;2023-06-14T10:49:16;28.10;73.70
33715;DHT22;20043;50.998;4.754;2023-06-14T10:51:49;28.00;72.70
33715;DHT22;20043;50.998;4.754;2023-06-14T10:54:16;28.00;72.20
33715;DHT22;20043;50.998;4.754;2023-06-14T10:56:49;28.30;73.30
33715;DHT22;20043;50.998;4.754;2023-06-14T10:59:16;28.40;68.90
33715;DHT22;20043;50.998;4.754;2023-06-14T11:04:49;28.20;72.60
33715;DHT22;20043;50.998;4.754;2023-06-14T11:10:37;28.50;72.10
33715;DHT22;20043;50.998;4.754;2023-06-14T11:13:04;28.60;70.80
33715;DHT22;20043;50.998;4.754;2023-06-14T11:15:30;28.60;70.10
33715;DHT22;20043;50.998;4.754;2023-06-14T11:17:57;28.80;73.20
33715;DHT22;20043;50.998;4.754;2023-06-14T11:20:26;28.80;72.30
33715;DHT22;20043;50.998;4.754;2023-06-14T11:22:53;28.90;71.90
33715;DHT22;20043;50.998;4.754;2023-06-14T11:25:19;28.50;71.00
33715;DHT22;20043;50.998;4.754;2023-06-14T11:27:45;28.70;69.90
33715;DHT22;20043;50.998;4.754;2023-06-14T11:30:12;28.80;70.40
33715;DHT22;20043;50.998;4.754;2023-06-14T11:32:38;29.20;70.60
33715;DHT22;20043;50.998;4.754;2023-06-14T11:35:04;29.20;68.30
33715;DHT22;20043;50.998;4.754;2023-06-14T11:37:31;29.30;70.50
33715;DHT22;20043;50.998;4.754;2023-06-14T11:40:00;29.00;68.40
33715;DHT22;20043;50.998;4.754;2023-06-14T11:42:29;29.30;70.90
33715;DHT22;20043;50.998;4.754;2023-06-14T11:44:55;29.50;69.80
33715;DHT22;20043;50.998;4.754;2023-06-14T11:47:22;29.40;69.00
33715;DHT22;20043;50.998;4.754;2023-06-14T11:49:47;29.30;70.90
33715;DHT22;20043;50.998;4.754;2023-06-14T11:52:14;29.30;69.80
33715;DHT22;20043;50.998;4.754;2023-06-14T11:54:40;29.40;68.60
33715;DHT22;20043;50.998;4.754;2023-06-14T11:57:07;29.70;67.50
33715;DHT22;20043;50.998;4.754;2023-06-14T11:59:39;29.20;68.70
33715;DHT22;20043;50.998;4.754;2023-06-14T12:02:06;28.90;68.30
33715;DHT22;20043;50.998;4.754;2023-06-14T12:04:32;28.80;69.70
33715;DHT22;20043;50.998;4.754;2023-06-14T12:07:11;29.10;68.90
33715;DHT22;20043;50.998;4.754;2023-06-14T12:12:27;28.70;66.30
33715;DHT22;20043;50.998;4.754;2023-06-14T12:14:53;28.60;67.10
33715;DHT22;20043;50.998;4.754;2023-06-14T12:17:20;28.60;69.10
33715;DHT22;20043;50.998;4.754;2023-06-14T12:19:46;28.80;68.60
33715;DHT22;20043;50.998;4.754;2023-06-14T12:22:13;29.20;67.70
33715;DHT22;20043;50.998;4.754;2023-06-14T12:24:39;29.60;66.30
33715;DHT22;20043;50.998;4.754;2023-06-14T12:27:08;29.50;64.60
33715;DHT22;20043;50.998;4.754;2023-06-14T12:29:33;29.70;64.80
33715;DHT22;20043;50.998;4.754;2023-06-14T12:31:59;29.80;64.20
33715;DHT22;20043;50.998;4.754;2023-06-14T12:34:26;29.50;63.70
33715;DHT22;20043;50.998;4.754;2023-06-14T12:36:53;28.30;62.70
33715;DHT22;20043;50.998;4.754;2023-06-14T12:39:19;28.10;63.60
33715;DHT22;20043;50.998;4.754;2023-06-14T12:41:45;28.00;63.30
33715;DHT22;20043;50.998;4.754;2023-06-14T12:44:11;28.30;63.80
33715;DHT22;20043;50.998;4.754;2023-06-14T12:46:37;28.50;64.80
33715;DHT22;20043;50.998;4.754;2023-06-14T12:49:05;28.90;65.80
33715;DHT22;20043;50.998;4.754;2023-06-14T12:51:31;29.20;62.10
33715;DHT22;20043;50.998;4.754;2023-06-14T12:53:56;29.20;65.50
33715;DHT22;20043;50.998;4.754;2023-06-14T12:56:22;29.30;62.30
33715;DHT22;20043;50.998;4.754;2023-06-14T12:58:47;29.70;62.20
33715;DHT22;20043;50.998;4.754;2023-06-14T13:01:20;29.60;62.30
33715;DHT22;20043;50.998;4.754;2023-06-14T13:03:47;29.30;61.20
33715;DHT22;20043;50.998;4.754;2023-06-14T13:06:13;29.30;63.50
33715;DHT22;20043;50.998;4.754;2023-06-14T13:08:41;29.20;65.30
33715;DHT22;20043;50.998;4.754;2023-06-14T13:11:06;29.20;62.70
33715;DHT22;20043;50.998;4.754;2023-06-14T13:13:32;29.10;61.40
33715;DHT22;20043;50.998;4.754;2023-06-14T13:15:58;29.20;63.20
33715;DHT22;20043;50.998;4.754;2023-06-14T13:18:24;29.10;60.20
33715;DHT22;20043;50.998;4.754;2023-06-14T13:20:49;28.50;61.50
33715;DHT22;20043;50.998;4.754;2023-06-14T13:23:15;27.80;63.70
33715;DHT22;20043;50.998;4.754;2023-06-14T13:25:41;27.70;62.40
33715;DHT22;20043;50.998;4.754;2023-06-14T13:28:07;27.80;62.30
33715;DHT22;20043;50.998;4.754;2023-06-14T13:30:33;27.70;61.50
33715;DHT22;20043;50.998;4.754;2023-06-14T13:32:59;27.80;62.00
33715;DHT22;20043;50.998;4.754;2023-06-14T13:35:25;27.80;61.40
33715;DHT22;20043;50.998;4.754;2023-06-14T13:37:51;27.90;64.10
33715;DHT22;20043;50.998;4.754;2023-06-14T13:40:17;28.00;64.10
33715;DHT22;20043;50.998;4.754;2023-06-14T13:42:42;27.80;63.10
33715;DHT22;20043;50.998;4.754;2023-06-14T13:45:09;27.90;63.80
33715;DHT22;20043;50.998;4.754;2023-06-14T13:47:35;28.30;62.80
33715;DHT22;20043;50.998;4.754;2023-06-14T13:50:01;28.50;62.90
33715;DHT22;20043;50.998;4.754;2023-06-14T13:52:28;28.80;64.30
33715;DHT22;20043;50.998;4.754;2023-06-14T13:54:53;29.20;62.80
33715;DHT22;20043;50.998;4.754;2023-06-14T13:57:19;29.50;65.70
33715;DHT22;20043;50.998;4.754;2023-06-14T13:59:45;29.60;64.10
33715;DHT22;20043;50.998;4.754;2023-06-14T14:02:11;29.50;63.00
33715;DHT22;20043;50.998;4.754;2023-06-14T14:04:37;29.50;64.10
33715;DHT22;20043;50.998;4.754;2023-06-14T14:07:04;29.40;64.20
33715;DHT22;20043;50.998;4.754;2023-06-14T14:09:31;29.60;64.60
33715;DHT22;20043;50.998;4.754;2023-06-14T14:11:58;29.40;63.40
33715;DHT22;20043;50.998;4.754;2023-06-14T14:14:24;28.80;62.40
33715;DHT22;20043;50.998;4.754;2023-06-14T14:16:50;28.60;62.20
33715;DHT22;20043;50.998;4.754;2023-06-14T14:19:20;28.50;61.50
33715;DHT22;20043;50.998;4.754;2023-06-14T14:21:47;28.60;64.90
33715;DHT22;20043;50.998;4.754;2023-06-14T14:24:13;28.90;61.90
33715;DHT22;20043;50.998;4.754;2023-06-14T14:26:39;29.20;63.80
33715;DHT22;20043;50.998;4.754;2023-06-14T14:29:05;29.40;64.10
33715;DHT22;20043;50.998;4.754;2023-06-14T14:31:31;29.10;63.30
33715;DHT22;20043;50.998;4.754;2023-06-14T14:33:57;28.90;63.60
33715;DHT22;20043;50.998;4.754;2023-06-14T14:36:23;28.80;62.90
33715;DHT22;20043;50.998;4.754;2023-06-14T14:38:48;28.60;63.10
33715;DHT22;20043;50.998;4.754;2023-06-14T14:41:14;28.70;63.80
33715;DHT22;20043;50.998;4.754;2023-06-14T14:43:40;28.90;62.90
33715;DHT22;20043;50.998;4.754;2023-06-14T14:46:05;29.10;62.90
33715;DHT22;20043;50.998;4.754;2023-06-14T14:48:31;29.20;64.20
33715;DHT22;20043;50.998;4.754;2023-06-14T14:50:57;29.20;62.70
33715;DHT22;20043;50.998;4.754;2023-06-14T14:53:23;29.20;65.60
33715;DHT22;20043;50.998;4.754;2023-06-14T14:55:49;29.40;62.90
33715;DHT22;20043;50.998;4.754;2023-06-14T14:58:14;29.40;63.60
33715;DHT22;20043;50.998;4.754;2023-06-14T15:00:47;29.00;63.30
33715;DHT22;20043;50.998;4.754;2023-06-14T15:03:13;28.70;65.60
33715;DHT22;20043;50.998;4.754;2023-06-14T15:05:39;28.70;65.20
33715;DHT22;20043;50.998;4.754;2023-06-14T15:08:05;28.90;65.90
33715;DHT22;20043;50.998;4.754;2023-06-14T15:10:39;29.00;64.90
33715;DHT22;20043;50.998;4.754;2023-06-14T15:13:07;28.60;63.90
33715;DHT22;20043;50.998;4.754;2023-06-14T15:15:33;28.40;64.80
33715;DHT22;20043;50.998;4.754;2023-06-14T15:17:59;28.50;64.50
33715;DHT22;20043;50.998;4.754;2023-06-14T15:20:26;28.30;64.60
33715;DHT22;20043;50.998;4.754;2023-06-14T15:22:51;27.80;65.50
33715;DHT22;20043;50.998;4.754;2023-06-14T15:25:18;28.20;65.30
33715;DHT22;20043;50.998;4.754;2023-06-14T15:27:44;28.10;62.80
33715;DHT22;20043;50.998;4.754;2023-06-14T15:30:10;28.00;65.00
33715;DHT22;20043;50.998;4.754;2023-06-14T15:32:36;27.90;65.00
33715;DHT22;20043;50.998;4.754;2023-06-14T15:35:02;27.70;64.40
33715;DHT22;20043;50.998;4.754;2023-06-14T15:37:27;27.60;65.70
33715;DHT22;20043;50.998;4.754;2023-06-14T15:39:53;27.80;65.40
33715;DHT22;20043;50.998;4.754;2023-06-14T15:42:18;27.90;63.70
33715;DHT22;20043;50.998;4.754;2023-06-14T15:44:44;28.30;64.20
33715;DHT22;20043;50.998;4.754;2023-06-14T15:47:11;28.30;62.20
33715;DHT22;20043;50.998;4.754;2023-06-14T15:49:37;28.20;64.20